sensor_id;sensor_type;location;lat;lon;timestamp;P1;durP1;ratioP1;P2;durP2;ratioP2
51814;SDS011;37874;53.158;6.766;2023-06-22T02:02:54;3.17;;;2.03;;
51814;SDS011;37874;53.158;6.766;2023-06-22T02:05:26;2.30;;;1.58;;
51814;SDS011;37874;53.158;6.766;2023-06-22T02:10:43;2.60;;;1.83;;
51814;SDS011;37874;53.158;6.766;2023-06-22T02:13:10;3.00;;;1.67;;
51814;SDS011;37874;53.158;6.766;2023-06-22T02:15:38;2.70;;;1.90;;
51814;SDS011;37874;53.158;6.766;2023-06-22T02:18:04;2.45;;;1.58;;
51814;SDS011;37874;53.158;6.766;2023-06-22T02:20:30;2.60;;;1.70;;
51814;SDS011;37874;53.158;6.766;2023-06-22T02:22:55;2.83;;;1.88;;
51814;SDS011;37874;53.158;6.766;2023-06-22T02:25:21;2.80;;;1.67;;
51814;SDS011;37874;53.158;6.766;2023-06-22T02:27:47;2.78;;;1.77;;
51814;SDS011;37874;53.158;6.766;2023-06-22T02:30:13;3.03;;;2.10;;
51814;SDS011;37874;53.158;6.766;2023-06-22T02:32:40;2.30;;;1.63;;
51814;SDS011;37874;53.158;6.766;2023-06-22T02:35:08;2.70;;;1.90;;
51814;SDS011;37874;53.158;6.766;2023-06-22T02:37:35;2.35;;;1.70;;
51814;SDS011;37874;53.158;6.766;2023-06-22T02:40:04;2.63;;;1.73;;
51814;SDS011;37874;53.158;6.766;2023-06-22T02:42:32;2.10;;;1.42;;
51814;SDS011;37874;53.158;6.766;2023-06-22T02:44:57;2.40;;;1.60;;
51814;SDS011;37874;53.158;6.766;2023-06-22T02:47:23;2.00;;;1.52;;
51814;SDS011;37874;53.158;6.766;2023-06-22T02:49:49;2.03;;;1.50;;
51814;SDS011;37874;53.158;6.766;2023-06-22T02:52:14;2.15;;;1.45;;
51814;SDS011;37874;53.158;6.766;2023-06-22T02:54:40;2.78;;;1.70;;
51814;SDS011;37874;53.158;6.766;2023-06-22T02:57:05;2.50;;;1.60;;
51814;SDS011;37874;53.158;6.766;2023-06-22T02:59:31;2.03;;;1.48;;
51814;SDS011;37874;53.158;6.766;2023-06-22T03:01:56;2.72;;;1.73;;
51814;SDS011;37874;53.158;6.766;2023-06-22T03:04:22;3.10;;;1.70;;
51814;SDS011;37874;53.158;6.766;2023-06-22T03:06:48;2.85;;;1.60;;
51814;SDS011;37874;53.158;6.766;2023-06-22T03:09:16;3.17;;;1.58;;
51814;SDS011;37874;53.158;6.766;2023-06-22T03:11:42;2.28;;;1.33;;
51814;SDS011;37874;53.158;6.766;2023-06-22T03:14:07;2.20;;;1.52;;
51814;SDS011;37874;53.158;6.766;2023-06-22T03:16:33;2.05;;;1.52;;
51814;SDS011;37874;53.158;6.766;2023-06-22T03:18:59;2.28;;;1.48;;
51814;SDS011;37874;53.158;6.766;2023-06-22T03:21:27;2.08;;;1.52;;
51814;SDS011;37874;53.158;6.766;2023-06-22T03:23:53;1.60;;;1.10;;
51814;SDS011;37874;53.158;6.766;2023-06-22T03:26:19;1.90;;;1.35;;
51814;SDS011;37874;53.158;6.766;2023-06-22T03:28:45;2.40;;;1.50;;
51814;SDS011;37874;53.158;6.766;2023-06-22T03:31:11;2.10;;;1.20;;
51814;SDS011;37874;53.158;6.766;2023-06-22T03:33:36;1.98;;;1.35;;
51814;SDS011;37874;53.158;6.766;2023-06-22T03:36:02;2.65;;;1.40;;
51814;SDS011;37874;53.158;6.766;2023-06-22T03:38:28;2.22;;;1.40;;
51814;SDS011;37874;53.158;6.766;2023-06-22T03:40:53;2.05;;;1.40;;
51814;SDS011;37874;53.158;6.766;2023-06-22T03:43:19;1.98;;;1.27;;
51814;SDS011;37874;53.158;6.766;2023-06-22T03:45:45;2.00;;;1.13;;
51814;SDS011;37874;53.158;6.766;2023-06-22T03:48:11;1.98;;;1.23;;
51814;SDS011;37874;53.158;6.766;2023-06-22T03:50:37;1.90;;;1.30;;
51814;SDS011;37874;53.158;6.766;2023-06-22T03:53:03;1.85;;;1.20;;
51814;SDS011;37874;53.158;6.766;2023-06-22T03:55:28;1.80;;;1.10;;
51814;SDS011;37874;53.158;6.766;2023-06-22T03:57:54;1.92;;;1.50;;
51814;SDS011;37874;53.158;6.766;2023-06-22T04:00:22;2.15;;;1.30;;
51814;SDS011;37874;53.158;6.766;2023-06-22T04:02:48;1.90;;;1.33;;
51814;SDS011;37874;53.158;6.766;2023-06-22T04:05:13;2.15;;;1.27;;
51814;SDS011;37874;53.158;6.766;2023-06-22T04:07:39;2.20;;;1.52;;
51814;SDS011;37874;53.158;6.766;2023-06-22T04:10:05;2.15;;;1.30;;
51814;SDS011;37874;53.158;6.766;2023-06-22T04:12:31;2.63;;;1.60;;
51814;SDS011;37874;53.158;6.766;2023-06-22T04:14:57;1.88;;;1.20;;
51814;SDS011;37874;53.158;6.766;2023-06-22T04:17:22;1.77;;;1.27;;
51814;SDS011;37874;53.158;6.766;2023-06-22T04:19:50;2.00;;;1.50;;
51814;SDS011;37874;53.158;6.766;2023-06-22T04:22:16;1.95;;;1.38;;
51814;SDS011;37874;53.158;6.766;2023-06-22T04:24:41;1.70;;;1.20;;
51814;SDS011;37874;53.158;6.766;2023-06-22T04:27:07;2.08;;;1.35;;
51814;SDS011;37874;53.158;6.766;2023-06-22T04:29:33;2.58;;;1.20;;
51814;SDS011;37874;53.158;6.766;2023-06-22T04:31:58;2.50;;;1.50;;
51814;SDS011;37874;53.158;6.766;2023-06-22T04:34:28;2.63;;;1.40;;
51814;SDS011;37874;53.158;6.766;2023-06-22T04:36:53;1.90;;;1.25;;
51814;SDS011;37874;53.158;6.766;2023-06-22T04:39:19;1.80;;;1.20;;
51814;SDS011;37874;53.158;6.766;2023-06-22T04:41:45;1.73;;;1.00;;
51814;SDS011;37874;53.158;6.766;2023-06-22T04:44:14;1.83;;;1.23;;
51814;SDS011;37874;53.158;6.766;2023-06-22T04:46:49;1.95;;;1.20;;
51814;SDS011;37874;53.158;6.766;2023-06-22T04:49:25;1.88;;;1.33;;
51814;SDS011;37874;53.158;6.766;2023-06-22T04:51:57;2.05;;;1.17;;
51814;SDS011;37874;53.158;6.766;2023-06-22T04:54:23;1.75;;;1.20;;
51814;SDS011;37874;53.158;6.766;2023-06-22T04:56:49;2.22;;;1.40;;
51814;SDS011;37874;53.158;6.766;2023-06-22T04:59:22;2.15;;;1.20;;
51814;SDS011;37874;53.158;6.766;2023-06-22T05:01:52;2.00;;;1.30;;
51814;SDS011;37874;53.158;6.766;2023-06-22T05:04:22;2.15;;;1.30;;
51814;SDS011;37874;53.158;6.766;2023-06-22T05:06:49;1.90;;;1.35;;
51814;SDS011;37874;53.158;6.766;2023-06-22T05:09:15;2.13;;;1.40;;
51814;SDS011;37874;53.158;6.766;2023-06-22T05:11:42;1.40;;;1.02;;
51814;SDS011;37874;53.158;6.766;2023-06-22T05:14:08;1.85;;;1.15;;
51814;SDS011;37874;53.158;6.766;2023-06-22T05:16:33;1.80;;;1.20;;
51814;SDS011;37874;53.158;6.766;2023-06-22T05:18:59;2.13;;;1.30;;
51814;SDS011;37874;53.158;6.766;2023-06-22T05:21:26;2.00;;;1.30;;
51814;SDS011;37874;53.158;6.766;2023-06-22T05:23:52;2.05;;;1.30;;
51814;SDS011;37874;53.158;6.766;2023-06-22T05:26:20;1.67;;;1.20;;
51814;SDS011;37874;53.158;6.766;2023-06-22T05:28:46;2.10;;;1.20;;
51814;SDS011;37874;53.158;6.766;2023-06-22T05:31:13;1.75;;;1.30;;
51814;SDS011;37874;53.158;6.766;2023-06-22T05:33:40;1.70;;;1.02;;
51814;SDS011;37874;53.158;6.766;2023-06-22T05:36:07;2.10;;;1.30;;
51814;SDS011;37874;53.158;6.766;2023-06-22T05:38:33;2.30;;;1.33;;
51814;SDS011;37874;53.158;6.766;2023-06-22T05:40:59;2.13;;;1.35;;
51814;SDS011;37874;53.158;6.766;2023-06-22T05:43:24;2.35;;;1.50;;
51814;SDS011;37874;53.158;6.766;2023-06-22T05:45:50;1.90;;;1.17;;
51814;SDS011;37874;53.158;6.766;2023-06-22T05:48:15;2.00;;;1.17;;
51814;SDS011;37874;53.158;6.766;2023-06-22T05:50:41;2.40;;;1.05;;
51814;SDS011;37874;53.158;6.766;2023-06-22T05:53:07;2.17;;;1.20;;
51814;SDS011;37874;53.158;6.766;2023-06-22T05:55:33;2.10;;;1.23;;
51814;SDS011;37874;53.158;6.766;2023-06-22T05:57:58;2.00;;;1.27;;
51814;SDS011;37874;53.158;6.766;2023-06-22T06:00:24;2.22;;;1.30;;
51814;SDS011;37874;53.158;6.766;2023-06-22T06:02:50;2.35;;;1.58;;
51814;SDS011;37874;53.158;6.766;2023-06-22T06:05:15;1.73;;;1.20;;
51814;SDS011;37874;53.158;6.766;2023-06-22T06:07:44;1.95;;;1.40;;
51814;SDS011;37874;53.158;6.766;2023-06-22T06:10:11;2.42;;;1.23;;
51814;SDS011;37874;53.158;6.766;2023-06-22T06:12:37;2.40;;;1.52;;
51814;SDS011;37874;53.158;6.766;2023-06-22T06:15:03;2.00;;;1.30;;
51814;SDS011;37874;53.158;6.766;2023-06-22T06:17:29;1.90;;;1.27;;
51814;SDS011;37874;53.158;6.766;2023-06-22T06:19:55;1.75;;;1.25;;
51814;SDS011;37874;53.158;6.766;2023-06-22T06:22:20;2.45;;;1.50;;
51814;SDS011;37874;53.158;6.766;2023-06-22T06:24:47;4.63;;;1.45;;
51814;SDS011;37874;53.158;6.766;2023-06-22T06:27:13;2.00;;;1.40;;
51814;SDS011;37874;53.158;6.766;2023-06-22T06:29:39;3.08;;;1.50;;
51814;SDS011;37874;53.158;6.766;2023-06-22T06:32:04;5.03;;;1.92;;
51814;SDS011;37874;53.158;6.766;2023-06-22T06:34:30;3.17;;;1.90;;
51814;SDS011;37874;53.158;6.766;2023-06-22T06:36:56;3.20;;;1.90;;
51814;SDS011;37874;53.158;6.766;2023-06-22T06:39:21;2.97;;;1.63;;
51814;SDS011;37874;53.158;6.766;2023-06-22T06:41:47;3.60;;;1.98;;
51814;SDS011;37874;53.158;6.766;2023-06-22T06:44:12;5.90;;;1.70;;
51814;SDS011;37874;53.158;6.766;2023-06-22T06:46:38;3.42;;;1.95;;
51814;SDS011;37874;53.158;6.766;2023-06-22T06:49:04;3.50;;;1.92;;
51814;SDS011;37874;53.158;6.766;2023-06-22T06:51:29;3.17;;;1.90;;
51814;SDS011;37874;53.158;6.766;2023-06-22T06:53:55;3.20;;;1.73;;
51814;SDS011;37874;53.158;6.766;2023-06-22T06:56:21;3.72;;;1.73;;
51814;SDS011;37874;53.158;6.766;2023-06-22T06:58:46;2.40;;;1.52;;
51814;SDS011;37874;53.158;6.766;2023-06-22T07:01:14;3.75;;;1.67;;
51814;SDS011;37874;53.158;6.766;2023-06-22T07:03:40;2.90;;;2.00;;
51814;SDS011;37874;53.158;6.766;2023-06-22T07:06:06;5.75;;;2.38;;
51814;SDS011;37874;53.158;6.766;2023-06-22T07:08:31;3.53;;;1.70;;
51814;SDS011;37874;53.158;6.766;2023-06-22T07:10:57;3.58;;;1.95;;
51814;SDS011;37874;53.158;6.766;2023-06-22T07:13:23;2.88;;;1.80;;
51814;SDS011;37874;53.158;6.766;2023-06-22T07:15:48;3.65;;;1.73;;
51814;SDS011;37874;53.158;6.766;2023-06-22T07:18:14;3.40;;;2.03;;
51814;SDS011;37874;53.158;6.766;2023-06-22T07:20:39;7.43;;;4.07;;
51814;SDS011;37874;53.158;6.766;2023-06-22T07:23:06;8.38;;;4.22;;
51814;SDS011;37874;53.158;6.766;2023-06-22T07:25:31;6.47;;;4.00;;
51814;SDS011;37874;53.158;6.766;2023-06-22T07:27:58;5.43;;;3.13;;
51814;SDS011;37874;53.158;6.766;2023-06-22T07:30:29;5.32;;;2.67;;
51814;SDS011;37874;53.158;6.766;2023-06-22T07:32:56;6.00;;;2.55;;
51814;SDS011;37874;53.158;6.766;2023-06-22T07:35:22;6.03;;;2.83;;
51814;SDS011;37874;53.158;6.766;2023-06-22T07:37:47;4.47;;;2.33;;
51814;SDS011;37874;53.158;6.766;2023-06-22T07:40:13;4.13;;;2.75;;
51814;SDS011;37874;53.158;6.766;2023-06-22T07:42:39;4.53;;;2.45;;
51814;SDS011;37874;53.158;6.766;2023-06-22T07:45:04;5.68;;;2.38;;
51814;SDS011;37874;53.158;6.766;2023-06-22T07:47:33;3.90;;;2.40;;
51814;SDS011;37874;53.158;6.766;2023-06-22T07:50:00;4.28;;;2.47;;
51814;SDS011;37874;53.158;6.766;2023-06-22T07:52:27;4.55;;;2.30;;
51814;SDS011;37874;53.158;6.766;2023-06-22T07:54:53;4.70;;;2.50;;
51814;SDS011;37874;53.158;6.766;2023-06-22T07:57:19;4.95;;;2.53;;
51814;SDS011;37874;53.158;6.766;2023-06-22T07:59:45;6.22;;;2.38;;
51814;SDS011;37874;53.158;6.766;2023-06-22T08:02:11;4.22;;;2.35;;
51814;SDS011;37874;53.158;6.766;2023-06-22T08:04:37;4.63;;;2.08;;
51814;SDS011;37874;53.158;6.766;2023-06-22T08:07:03;4.28;;;2.15;;
51814;SDS011;37874;53.158;6.766;2023-06-22T08:09:29;3.50;;;1.90;;
51814;SDS011;37874;53.158;6.766;2023-06-22T08:11:56;4.20;;;2.08;;
51814;SDS011;37874;53.158;6.766;2023-06-22T08:14:23;4.50;;;2.15;;
51814;SDS011;37874;53.158;6.766;2023-06-22T08:16:50;3.80;;;2.25;;
51814;SDS011;37874;53.158;6.766;2023-06-22T08:19:15;3.42;;;2.00;;
51814;SDS011;37874;53.158;6.766;2023-06-22T08:21:41;3.03;;;1.88;;
51814;SDS011;37874;53.158;6.766;2023-06-22T08:24:07;3.65;;;2.10;;
51814;SDS011;37874;53.158;6.766;2023-06-22T08:26:33;4.20;;;2.15;;
51814;SDS011;37874;53.158;6.766;2023-06-22T08:29:04;3.53;;;1.95;;
51814;SDS011;37874;53.158;6.766;2023-06-22T08:31:30;3.10;;;1.77;;
51814;SDS011;37874;53.158;6.766;2023-06-22T08:33:58;3.40;;;1.92;;
51814;SDS011;37874;53.158;6.766;2023-06-22T08:36:24;4.53;;;2.20;;
51814;SDS011;37874;53.158;6.766;2023-06-22T08:38:50;3.53;;;2.03;;
51814;SDS011;37874;53.158;6.766;2023-06-22T08:41:19;2.85;;;1.80;;
51814;SDS011;37874;53.158;6.766;2023-06-22T08:43:44;4.20;;;1.75;;
51814;SDS011;37874;53.158;6.766;2023-06-22T08:46:13;4.30;;;2.10;;
51814;SDS011;37874;53.158;6.766;2023-06-22T08:48:39;3.40;;;1.95;;
51814;SDS011;37874;53.158;6.766;2023-06-22T08:51:04;4.22;;;1.92;;
51814;SDS011;37874;53.158;6.766;2023-06-22T08:53:30;5.55;;;1.95;;
51814;SDS011;37874;53.158;6.766;2023-06-22T08:55:55;4.25;;;1.80;;
51814;SDS011;37874;53.158;6.766;2023-06-22T08:58:21;3.13;;;1.83;;
51814;SDS011;37874;53.158;6.766;2023-06-22T09:00:49;3.45;;;1.98;;
51814;SDS011;37874;53.158;6.766;2023-06-22T09:03:16;3.00;;;1.80;;
51814;SDS011;37874;53.158;6.766;2023-06-22T09:05:42;3.00;;;1.80;;
51814;SDS011;37874;53.158;6.766;2023-06-22T09:08:07;3.70;;;1.92;;
51814;SDS011;37874;53.158;6.766;2023-06-22T09:10:33;2.80;;;1.63;;
51814;SDS011;37874;53.158;6.766;2023-06-22T09:12:58;4.80;;;1.75;;
51814;SDS011;37874;53.158;6.766;2023-06-22T09:15:24;3.05;;;1.80;;
51814;SDS011;37874;53.158;6.766;2023-06-22T09:17:50;4.07;;;2.15;;
51814;SDS011;37874;53.158;6.766;2023-06-22T09:20:15;2.50;;;1.80;;
51814;SDS011;37874;53.158;6.766;2023-06-22T09:22:41;3.90;;;1.70;;
51814;SDS011;37874;53.158;6.766;2023-06-22T09:25:07;3.20;;;1.85;;
51814;SDS011;37874;53.158;6.766;2023-06-22T09:27:33;4.47;;;1.77;;
51814;SDS011;37874;53.158;6.766;2023-06-22T09:29:58;2.72;;;1.60;;
51814;SDS011;37874;53.158;6.766;2023-06-22T09:32:24;3.15;;;2.13;;
51814;SDS011;37874;53.158;6.766;2023-06-22T09:34:50;3.90;;;1.80;;
51814;SDS011;37874;53.158;6.766;2023-06-22T09:37:16;2.35;;;1.48;;
51814;SDS011;37874;53.158;6.766;2023-06-22T09:39:42;3.00;;;1.80;;
51814;SDS011;37874;53.158;6.766;2023-06-22T09:42:07;3.35;;;1.75;;
51814;SDS011;37874;53.158;6.766;2023-06-22T09:44:33;2.72;;;1.80;;
51814;SDS011;37874;53.158;6.766;2023-06-22T09:46:59;3.58;;;1.77;;
51814;SDS011;37874;53.158;6.766;2023-06-22T09:49:25;3.08;;;1.70;;
51814;SDS011;37874;53.158;6.766;2023-06-22T09:51:51;2.38;;;1.60;;
51814;SDS011;37874;53.158;6.766;2023-06-22T09:54:17;2.97;;;1.95;;
51814;SDS011;37874;53.158;6.766;2023-06-22T09:56:43;3.28;;;1.58;;
51814;SDS011;37874;53.158;6.766;2023-06-22T09:59:09;3.33;;;1.65;;
51814;SDS011;37874;53.158;6.766;2023-06-22T10:01:34;3.60;;;1.88;;
51814;SDS011;37874;53.158;6.766;2023-06-22T10:04:01;4.40;;;2.00;;
51814;SDS011;37874;53.158;6.766;2023-06-22T10:06:27;3.25;;;1.70;;
51814;SDS011;37874;53.158;6.766;2023-06-22T10:08:53;2.67;;;1.52;;
51814;SDS011;37874;53.158;6.766;2023-06-22T10:11:19;2.55;;;1.65;;
51814;SDS011;37874;53.158;6.766;2023-06-22T10:13:44;4.75;;;1.65;;
51814;SDS011;37874;53.158;6.766;2023-06-22T10:16:10;3.42;;;1.35;;
51814;SDS011;37874;53.158;6.766;2023-06-22T10:18:35;3.30;;;1.58;;
51814;SDS011;37874;53.158;6.766;2023-06-22T10:21:01;2.65;;;1.60;;
51814;SDS011;37874;53.158;6.766;2023-06-22T10:23:27;3.65;;;1.70;;
51814;SDS011;37874;53.158;6.766;2023-06-22T10:25:53;3.75;;;2.00;;
51814;SDS011;37874;53.158;6.766;2023-06-22T10:28:18;3.35;;;1.88;;
51814;SDS011;37874;53.158;6.766;2023-06-22T10:30:44;5.63;;;1.90;;
51814;SDS011;37874;53.158;6.766;2023-06-22T10:33:10;3.22;;;1.52;;
51814;SDS011;37874;53.158;6.766;2023-06-22T10:35:36;3.08;;;1.60;;
51814;SDS011;37874;53.158;6.766;2023-06-22T10:38:02;2.88;;;1.88;;
51814;SDS011;37874;53.158;6.766;2023-06-22T10:40:29;3.28;;;1.75;;
51814;SDS011;37874;53.158;6.766;2023-06-22T10:42:54;3.28;;;1.70;;
51814;SDS011;37874;53.158;6.766;2023-06-22T10:45:20;3.60;;;2.03;;
51814;SDS011;37874;53.158;6.766;2023-06-22T10:47:46;2.83;;;1.73;;
51814;SDS011;37874;53.158;6.766;2023-06-22T10:50:11;3.30;;;1.80;;
51814;SDS011;37874;53.158;6.766;2023-06-22T10:52:37;4.72;;;2.03;;
51814;SDS011;37874;53.158;6.766;2023-06-22T10:55:03;3.20;;;1.88;;
51814;SDS011;37874;53.158;6.766;2023-06-22T10:57:29;3.70;;;1.90;;
51814;SDS011;37874;53.158;6.766;2023-06-22T10:59:54;2.75;;;1.80;;
51814;SDS011;37874;53.158;6.766;2023-06-22T11:02:20;4.57;;;1.88;;
51814;SDS011;37874;53.158;6.766;2023-06-22T11:04:45;3.63;;;1.85;;
51814;SDS011;37874;53.158;6.766;2023-06-22T11:07:12;4.80;;;1.95;;
51814;SDS011;37874;53.158;6.766;2023-06-22T11:09:38;5.03;;;2.10;;
51814;SDS011;37874;53.158;6.766;2023-06-22T11:12:05;6.10;;;2.15;;
51814;SDS011;37874;53.158;6.766;2023-06-22T11:14:31;5.10;;;2.42;;
51814;SDS011;37874;53.158;6.766;2023-06-22T11:16:58;4.93;;;2.15;;
51814;SDS011;37874;53.158;6.766;2023-06-22T11:19:24;3.78;;;2.28;;
51814;SDS011;37874;53.158;6.766;2023-06-22T11:21:49;6.72;;;2.33;;
51814;SDS011;37874;53.158;6.766;2023-06-22T11:24:16;4.55;;;2.20;;
51814;SDS011;37874;53.158;6.766;2023-06-22T11:26:42;4.60;;;2.20;;
51814;SDS011;37874;53.158;6.766;2023-06-22T11:29:07;3.80;;;2.03;;
51814;SDS011;37874;53.158;6.766;2023-06-22T11:31:36;5.45;;;2.25;;
51814;SDS011;37874;53.158;6.766;2023-06-22T11:34:02;5.70;;;2.40;;
51814;SDS011;37874;53.158;6.766;2023-06-22T11:36:29;5.35;;;2.20;;
51814;SDS011;37874;53.158;6.766;2023-06-22T11:38:57;3.42;;;2.00;;
51814;SDS011;37874;53.158;6.766;2023-06-22T11:41:23;6.50;;;2.20;;
51814;SDS011;37874;53.158;6.766;2023-06-22T11:43:49;8.98;;;2.65;;
51814;SDS011;37874;53.158;6.766;2023-06-22T11:46:14;3.55;;;2.00;;
51814;SDS011;37874;53.158;6.766;2023-06-22T11:48:40;5.20;;;2.10;;
51814;SDS011;37874;53.158;6.766;2023-06-22T11:51:05;5.45;;;2.20;;
51814;SDS011;37874;53.158;6.766;2023-06-22T11:53:33;3.53;;;2.03;;
51814;SDS011;37874;53.158;6.766;2023-06-22T11:56:00;5.55;;;2.45;;
51814;SDS011;37874;53.158;6.766;2023-06-22T11:58:26;3.08;;;2.10;;
51814;SDS011;37874;53.158;6.766;2023-06-22T12:00:52;4.40;;;2.53;;
51814;SDS011;37874;53.158;6.766;2023-06-22T12:03:18;4.88;;;2.45;;
51814;SDS011;37874;53.158;6.766;2023-06-22T12:05:44;4.05;;;1.92;;
51814;SDS011;37874;53.158;6.766;2023-06-22T12:08:09;4.55;;;1.92;;
51814;SDS011;37874;53.158;6.766;2023-06-22T12:10:35;3.45;;;2.00;;
51814;SDS011;37874;53.158;6.766;2023-06-22T12:13:00;3.88;;;2.17;;
51814;SDS011;37874;53.158;6.766;2023-06-22T12:15:26;3.55;;;1.98;;
51814;SDS011;37874;53.158;6.766;2023-06-22T12:17:52;3.40;;;2.03;;
51814;SDS011;37874;53.158;6.766;2023-06-22T12:20:18;3.92;;;2.35;;
51814;SDS011;37874;53.158;6.766;2023-06-22T12:22:44;4.38;;;1.88;;
51814;SDS011;37874;53.158;6.766;2023-06-22T12:25:10;3.00;;;2.00;;
51814;SDS011;37874;53.158;6.766;2023-06-22T12:27:36;5.45;;;2.10;;
51814;SDS011;37874;53.158;6.766;2023-06-22T12:30:02;4.10;;;2.20;;
51814;SDS011;37874;53.158;6.766;2023-06-22T12:32:28;3.67;;;2.17;;
51814;SDS011;37874;53.158;6.766;2023-06-22T12:34:54;5.85;;;2.08;;
51814;SDS011;37874;53.158;6.766;2023-06-22T12:37:20;4.13;;;2.05;;
51814;SDS011;37874;53.158;6.766;2023-06-22T12:39:45;3.15;;;1.90;;
51814;SDS011;37874;53.158;6.766;2023-06-22T12:42:11;3.70;;;2.28;;
51814;SDS011;37874;53.158;6.766;2023-06-22T12:44:38;5.40;;;2.15;;
51814;SDS011;37874;53.158;6.766;2023-06-22T12:47:07;3.58;;;2.20;;
51814;SDS011;37874;53.158;6.766;2023-06-22T12:49:34;5.10;;;1.90;;
51814;SDS011;37874;53.158;6.766;2023-06-22T12:52:09;3.83;;;2.28;;
51814;SDS011;37874;53.158;6.766;2023-06-22T12:54:35;3.08;;;2.20;;
51814;SDS011;37874;53.158;6.766;2023-06-22T12:57:01;3.30;;;1.90;;
51814;SDS011;37874;53.158;6.766;2023-06-22T12:59:27;3.55;;;2.40;;
51814;SDS011;37874;53.158;6.766;2023-06-22T13:01:53;4.65;;;2.20;;
51814;SDS011;37874;53.158;6.766;2023-06-22T13:04:18;4.78;;;2.28;;
51814;SDS011;37874;53.158;6.766;2023-06-22T13:06:44;3.22;;;1.75;;
51814;SDS011;37874;53.158;6.766;2023-06-22T13:09:14;4.45;;;1.90;;
51814;SDS011;37874;53.158;6.766;2023-06-22T13:11:40;4.03;;;2.20;;
51814;SDS011;37874;53.158;6.766;2023-06-22T13:14:06;4.90;;;2.00;;
51814;SDS011;37874;53.158;6.766;2023-06-22T13:16:32;3.70;;;2.15;;
51814;SDS011;37874;53.158;6.766;2023-06-22T13:18:57;6.70;;;2.13;;
51814;SDS011;37874;53.158;6.766;2023-06-22T13:21:23;3.88;;;2.10;;
51814;SDS011;37874;53.158;6.766;2023-06-22T13:23:49;3.72;;;1.70;;
51814;SDS011;37874;53.158;6.766;2023-06-22T13:26:14;4.70;;;2.30;;
51814;SDS011;37874;53.158;6.766;2023-06-22T13:28:40;4.75;;;1.88;;
51814;SDS011;37874;53.158;6.766;2023-06-22T13:31:05;5.25;;;2.15;;
51814;SDS011;37874;53.158;6.766;2023-06-22T13:33:31;5.78;;;1.88;;
51814;SDS011;37874;53.158;6.766;2023-06-22T13:35:57;4.63;;;2.00;;
51814;SDS011;37874;53.158;6.766;2023-06-22T13:38:22;5.55;;;1.92;;
51814;SDS011;37874;53.158;6.766;2023-06-22T13:40:48;2.83;;;1.63;;
51814;SDS011;37874;53.158;6.766;2023-06-22T13:43:14;4.47;;;2.00;;
51814;SDS011;37874;53.158;6.766;2023-06-22T13:45:40;4.45;;;2.00;;
51814;SDS011;37874;53.158;6.766;2023-06-22T13:48:06;3.10;;;1.75;;
51814;SDS011;37874;53.158;6.766;2023-06-22T13:50:32;3.28;;;1.98;;
51814;SDS011;37874;53.158;6.766;2023-06-22T13:52:58;3.70;;;2.03;;
51814;SDS011;37874;53.158;6.766;2023-06-22T13:55:23;4.57;;;1.83;;
51814;SDS011;37874;53.158;6.766;2023-06-22T13:57:49;4.90;;;2.10;;
51814;SDS011;37874;53.158;6.766;2023-06-22T14:00:16;4.43;;;1.70;;
51814;SDS011;37874;53.158;6.766;2023-06-22T14:02:42;3.13;;;1.70;;
51814;SDS011;37874;53.158;6.766;2023-06-22T14:05:08;3.42;;;1.95;;
51814;SDS011;37874;53.158;6.766;2023-06-22T14:07:34;2.80;;;1.40;;
51814;SDS011;37874;53.158;6.766;2023-06-22T14:10:00;3.88;;;1.75;;
51814;SDS011;37874;53.158;6.766;2023-06-22T14:12:26;3.10;;;1.73;;
51814;SDS011;37874;53.158;6.766;2023-06-22T14:14:51;4.10;;;1.67;;
51814;SDS011;37874;53.158;6.766;2023-06-22T14:17:17;5.20;;;1.95;;
51814;SDS011;37874;53.158;6.766;2023-06-22T14:19:48;3.63;;;1.75;;
51814;SDS011;37874;53.158;6.766;2023-06-22T14:22:14;5.00;;;1.70;;
51814;SDS011;37874;53.158;6.766;2023-06-22T14:24:40;3.53;;;1.60;;
51814;SDS011;37874;53.158;6.766;2023-06-22T14:27:06;4.53;;;1.80;;
51814;SDS011;37874;53.158;6.766;2023-06-22T14:29:34;4.78;;;1.90;;
51814;SDS011;37874;53.158;6.766;2023-06-22T14:32:00;3.42;;;1.33;;
51814;SDS011;37874;53.158;6.766;2023-06-22T14:34:26;3.08;;;1.60;;
51814;SDS011;37874;53.158;6.766;2023-06-22T14:36:51;4.25;;;1.67;;
51814;SDS011;37874;53.158;6.766;2023-06-22T14:39:17;4.75;;;1.67;;
51814;SDS011;37874;53.158;6.766;2023-06-22T14:41:42;3.55;;;1.70;;
51814;SDS011;37874;53.158;6.766;2023-06-22T14:44:08;2.50;;;1.40;;
51814;SDS011;37874;53.158;6.766;2023-06-22T14:46:35;4.20;;;1.70;;
51814;SDS011;37874;53.158;6.766;2023-06-22T14:49:00;3.47;;;1.70;;
51814;SDS011;37874;53.158;6.766;2023-06-22T14:51:26;3.38;;;1.65;;
51814;SDS011;37874;53.158;6.766;2023-06-22T14:53:52;3.63;;;1.80;;
51814;SDS011;37874;53.158;6.766;2023-06-22T14:56:17;2.42;;;1.50;;
51814;SDS011;37874;53.158;6.766;2023-06-22T14:58:43;3.78;;;1.45;;
51814;SDS011;37874;53.158;6.766;2023-06-22T15:01:12;2.97;;;1.60;;
51814;SDS011;37874;53.158;6.766;2023-06-22T15:03:38;2.28;;;1.20;;
51814;SDS011;37874;53.158;6.766;2023-06-22T15:06:03;2.60;;;1.65;;
51814;SDS011;37874;53.158;6.766;2023-06-22T15:08:29;2.80;;;1.50;;
51814;SDS011;37874;53.158;6.766;2023-06-22T15:10:57;3.22;;;1.58;;
51814;SDS011;37874;53.158;6.766;2023-06-22T15:13:24;3.72;;;1.92;;
51814;SDS011;37874;53.158;6.766;2023-06-22T15:15:50;2.35;;;1.13;;
51814;SDS011;37874;53.158;6.766;2023-06-22T15:18:16;2.92;;;1.70;;
51814;SDS011;37874;53.158;6.766;2023-06-22T15:20:42;2.88;;;1.50;;
51814;SDS011;37874;53.158;6.766;2023-06-22T15:23:13;3.08;;;1.70;;
51814;SDS011;37874;53.158;6.766;2023-06-22T15:25:39;2.65;;;1.60;;
51814;SDS011;37874;53.158;6.766;2023-06-22T15:28:05;1.90;;;1.35;;
51814;SDS011;37874;53.158;6.766;2023-06-22T15:30:31;3.00;;;1.50;;
51814;SDS011;37874;53.158;6.766;2023-06-22T15:32:57;2.40;;;1.40;;
51814;SDS011;37874;53.158;6.766;2023-06-22T15:35:22;2.10;;;1.27;;
51814;SDS011;37874;53.158;6.766;2023-06-22T15:37:48;2.72;;;1.70;;
51814;SDS011;37874;53.158;6.766;2023-06-22T15:40:14;2.58;;;1.55;;
51814;SDS011;37874;53.158;6.766;2023-06-22T15:42:40;2.03;;;1.30;;
51814;SDS011;37874;53.158;6.766;2023-06-22T15:45:05;2.35;;;1.45;;
51814;SDS011;37874;53.158;6.766;2023-06-22T15:47:31;2.40;;;1.52;;
51814;SDS011;37874;53.158;6.766;2023-06-22T15:49:57;2.65;;;1.60;;
51814;SDS011;37874;53.158;6.766;2023-06-22T15:52:22;2.60;;;1.42;;
51814;SDS011;37874;53.158;6.766;2023-06-22T15:54:48;2.60;;;1.60;;
51814;SDS011;37874;53.158;6.766;2023-06-22T15:57:19;2.28;;;1.40;;
51814;SDS011;37874;53.158;6.766;2023-06-22T15:59:45;2.45;;;1.40;;
51814;SDS011;37874;53.158;6.766;2023-06-22T16:02:10;2.33;;;1.48;;
51814;SDS011;37874;53.158;6.766;2023-06-22T16:04:36;3.35;;;1.48;;
51814;SDS011;37874;53.158;6.766;2023-06-22T16:07:02;3.05;;;1.60;;
51814;SDS011;37874;53.158;6.766;2023-06-22T16:09:27;2.88;;;1.52;;
51814;SDS011;37874;53.158;6.766;2023-06-22T16:11:55;2.92;;;1.52;;
51814;SDS011;37874;53.158;6.766;2023-06-22T16:14:21;2.83;;;1.30;;
51814;SDS011;37874;53.158;6.766;2023-06-22T18:17:20;2.60;;;1.10;;
51814;SDS011;37874;53.158;6.766;2023-06-22T18:19:47;1.83;;;0.95;;
51814;SDS011;37874;53.158;6.766;2023-06-22T18:22:13;2.38;;;1.20;;
51814;SDS011;37874;53.158;6.766;2023-06-22T18:24:39;1.90;;;1.00;;
51814;SDS011;37874;53.158;6.766;2023-06-22T18:27:06;2.10;;;1.20;;
51814;SDS011;37874;53.158;6.766;2023-06-22T18:29:32;1.77;;;0.90;;
51814;SDS011;37874;53.158;6.766;2023-06-22T18:31:57;1.73;;;1.08;;
51814;SDS011;37874;53.158;6.766;2023-06-22T18:34:23;1.73;;;1.10;;
51814;SDS011;37874;53.158;6.766;2023-06-22T18:36:53;2.13;;;1.10;;
51814;SDS011;37874;53.158;6.766;2023-06-22T18:39:22;2.22;;;1.08;;
51814;SDS011;37874;53.158;6.766;2023-06-22T18:41:48;1.50;;;0.90;;
51814;SDS011;37874;53.158;6.766;2023-06-22T18:44:20;1.70;;;0.90;;
51814;SDS011;37874;53.158;6.766;2023-06-22T18:46:50;2.28;;;1.08;;